sensor_id;sensor_type;location;lat;lon;timestamp;P1;durP1;ratioP1;P2;durP2;ratioP2
36061;SDS011;22123;52.412;20.970;2023-02-26T00:00:39;0.70;;;0.47;;
36061;SDS011;22123;52.412;20.970;2023-02-26T00:03:06;0.40;;;0.40;;
36061;SDS011;22123;52.412;20.970;2023-02-26T00:05:31;1.13;;;0.68;;
36061;SDS011;22123;52.412;20.970;2023-02-26T00:07:57;6.43;;;1.27;;
36061;SDS011;22123;52.412;20.970;2023-02-26T00:10:23;0.73;;;0.60;;
36061;SDS011;22123;52.412;20.970;2023-02-26T00:12:49;1.42;;;0.88;;
36061;SDS011;22123;52.412;20.970;2023-02-26T00:15:15;0.35;;;0.35;;
36061;SDS011;22123;52.412;20.970;2023-02-26T00:17:53;0.25;;;0.17;;
36061;SDS011;22123;52.412;20.970;2023-02-26T00:20:32;0.85;;;0.52;;
36061;SDS011;22123;52.412;20.970;2023-02-26T00:22:58;0.20;;;0.20;;
36061;SDS011;22123;52.412;20.970;2023-02-26T00:25:24;0.50;;;0.45;;
36061;SDS011;22123;52.412;20.970;2023-02-26T00:27:50;0.40;;;0.28;;
36061;SDS011;22123;52.412;20.970;2023-02-26T00:30:16;0.40;;;0.20;;
36061;SDS011;22123;52.412;20.970;2023-02-26T00:32:42;1.38;;;0.82;;
36061;SDS011;22123;52.412;20.970;2023-02-26T00:35:12;0.00;;;0.00;;
36061;SDS011;22123;52.412;20.970;2023-02-26T00:43:14;0.10;;;0.10;;
36061;SDS011;22123;52.412;20.970;2023-02-26T00:51:41;1.38;;;0.90;;
36061;SDS011;22123;52.412;20.970;2023-02-26T00:54:20;3.40;;;1.13;;
36061;SDS011;22123;52.412;20.970;2023-02-26T00:56:49;0.22;;;0.13;;
36061;SDS011;22123;52.412;20.970;2023-02-26T00:59:16;1.13;;;0.80;;
36061;SDS011;22123;52.412;20.970;2023-02-26T01:01:43;2.55;;;1.25;;
36061;SDS011;22123;52.412;20.970;2023-02-26T01:04:09;1.13;;;0.73;;
36061;SDS011;22123;52.412;20.970;2023-02-26T01:06:38;0.30;;;0.30;;
36061;SDS011;22123;52.412;20.970;2023-02-26T01:09:20;1.73;;;0.70;;
36061;SDS011;22123;52.412;20.970;2023-02-26T01:12:08;5.32;;;0.55;;
36061;SDS011;22123;52.412;20.970;2023-02-26T01:14:36;0.38;;;0.32;;
36061;SDS011;22123;52.412;20.970;2023-02-26T01:17:05;1.25;;;0.80;;
36061;SDS011;22123;52.412;20.970;2023-02-26T01:22:43;2.15;;;0.75;;
36061;SDS011;22123;52.412;20.970;2023-02-26T01:25:16;0.75;;;0.65;;
36061;SDS011;22123;52.412;20.970;2023-02-26T01:27:46;0.75;;;0.30;;
36061;SDS011;22123;52.412;20.970;2023-02-26T01:30:12;0.80;;;0.80;;
36061;SDS011;22123;52.412;20.970;2023-02-26T01:35:54;0.17;;;0.17;;
36061;SDS011;22123;52.412;20.970;2023-02-26T01:38:44;0.35;;;0.35;;
36061;SDS011;22123;52.412;20.970;2023-02-26T01:43:59;2.00;;;1.02;;
36061;SDS011;22123;52.412;20.970;2023-02-26T01:49:12;2.83;;;0.55;;
36061;SDS011;22123;52.412;20.970;2023-02-26T01:54:19;0.73;;;0.35;;
36061;SDS011;22123;52.412;20.970;2023-02-26T01:56:46;1.05;;;0.73;;
36061;SDS011;22123;52.412;20.970;2023-02-26T01:59:16;1.15;;;0.65;;
36061;SDS011;22123;52.412;20.970;2023-02-26T02:01:44;0.82;;;0.52;;
36061;SDS011;22123;52.412;20.970;2023-02-26T02:04:11;0.88;;;0.85;;
36061;SDS011;22123;52.412;20.970;2023-02-26T02:06:39;1.60;;;1.10;;
36061;SDS011;22123;52.412;20.970;2023-02-26T02:09:05;0.13;;;0.13;;
36061;SDS011;22123;52.412;20.970;2023-02-26T02:11:32;0.38;;;0.32;;
36061;SDS011;22123;52.412;20.970;2023-02-26T02:16:59;1.08;;;0.45;;
36061;SDS011;22123;52.412;20.970;2023-02-26T02:22:34;0.47;;;0.38;;
36061;SDS011;22123;52.412;20.970;2023-02-26T02:28:33;0.45;;;0.38;;
36061;SDS011;22123;52.412;20.970;2023-02-26T02:33:54;0.60;;;0.35;;
36061;SDS011;22123;52.412;20.970;2023-02-26T02:39:07;0.63;;;0.47;;
36061;SDS011;22123;52.412;20.970;2023-02-26T02:41:42;1.73;;;0.93;;
36061;SDS011;22123;52.412;20.970;2023-02-26T02:44:14;0.68;;;0.68;;
36061;SDS011;22123;52.412;20.970;2023-02-26T02:46:43;0.75;;;0.65;;
36061;SDS011;22123;52.412;20.970;2023-02-26T02:52:25;3.15;;;0.52;;
36061;SDS011;22123;52.412;20.970;2023-02-26T02:55:04;0.45;;;0.17;;
36061;SDS011;22123;52.412;20.970;2023-02-26T02:57:57;0.30;;;0.20;;
36061;SDS011;22123;52.412;20.970;2023-02-26T03:00:29;0.75;;;0.75;;
36061;SDS011;22123;52.412;20.970;2023-02-26T03:03:15;0.17;;;0.10;;
36061;SDS011;22123;52.412;20.970;2023-02-26T03:05:54;4.03;;;0.73;;
36061;SDS011;22123;52.412;20.970;2023-02-26T03:08:21;1.00;;;0.40;;
36061;SDS011;22123;52.412;20.970;2023-02-26T03:10:52;0.00;;;0.00;;
36061;SDS011;22123;52.412;20.970;2023-02-26T03:13:19;0.00;;;0.00;;
36061;SDS011;22123;52.412;20.970;2023-02-26T03:16:07;0.47;;;0.10;;
36061;SDS011;22123;52.412;20.970;2023-02-26T03:21:31;0.98;;;0.77;;
36061;SDS011;22123;52.412;20.970;2023-02-26T03:24:09;0.60;;;0.38;;
36061;SDS011;22123;52.412;20.970;2023-02-26T03:26:56;0.85;;;0.20;;
36061;SDS011;22123;52.412;20.970;2023-02-26T03:29:37;0.32;;;0.32;;
36061;SDS011;22123;52.412;20.970;2023-02-26T03:34:57;1.17;;;0.65;;
36061;SDS011;22123;52.412;20.970;2023-02-26T03:37:39;0.63;;;0.22;;
36061;SDS011;22123;52.412;20.970;2023-02-26T03:40:18;0.20;;;0.10;;
36061;SDS011;22123;52.412;20.970;2023-02-26T03:42:52;0.57;;;0.20;;
36061;SDS011;22123;52.412;20.970;2023-02-26T03:45:25;0.28;;;0.28;;
36061;SDS011;22123;52.412;20.970;2023-02-26T03:47:56;1.38;;;0.32;;
36061;SDS011;22123;52.412;20.970;2023-02-26T03:50:34;0.10;;;0.10;;
36061;SDS011;22123;52.412;20.970;2023-02-26T03:53:02;0.20;;;0.00;;
36061;SDS011;22123;52.412;20.970;2023-02-26T03:55:47;0.38;;;0.32;;
36061;SDS011;22123;52.412;20.970;2023-02-26T03:58:14;0.35;;;0.35;;
36061;SDS011;22123;52.412;20.970;2023-02-26T04:00:43;1.05;;;0.77;;
36061;SDS011;22123;52.412;20.970;2023-02-26T04:03:20;0.20;;;0.20;;
36061;SDS011;22123;52.412;20.970;2023-02-26T04:05:52;1.25;;;0.57;;
36061;SDS011;22123;52.412;20.970;2023-02-26T04:08:19;0.22;;;0.20;;
36061;SDS011;22123;52.412;20.970;2023-02-26T04:10:57;0.85;;;0.30;;
36061;SDS011;22123;52.412;20.970;2023-02-26T04:13:24;0.20;;;0.20;;
36061;SDS011;22123;52.412;20.970;2023-02-26T04:15:50;0.60;;;0.50;;
36061;SDS011;22123;52.412;20.970;2023-02-26T04:18:16;0.10;;;0.10;;
36061;SDS011;22123;52.412;20.970;2023-02-26T04:20:42;1.15;;;0.88;;
36061;SDS011;22123;52.412;20.970;2023-02-26T04:23:08;0.32;;;0.32;;
36061;SDS011;22123;52.412;20.970;2023-02-26T04:25:34;0.30;;;0.25;;
36061;SDS011;22123;52.412;20.970;2023-02-26T04:28:00;0.75;;;0.57;;
36061;SDS011;22123;52.412;20.970;2023-02-26T04:30:26;4.43;;;0.68;;
36061;SDS011;22123;52.412;20.970;2023-02-26T04:32:51;0.28;;;0.28;;
36061;SDS011;22123;52.412;20.970;2023-02-26T04:35:17;0.60;;;0.40;;
36061;SDS011;22123;52.412;20.970;2023-02-26T04:37:43;0.25;;;0.22;;
36061;SDS011;22123;52.412;20.970;2023-02-26T04:40:09;1.00;;;0.50;;
36061;SDS011;22123;52.412;20.970;2023-02-26T04:42:36;0.57;;;0.57;;
36061;SDS011;22123;52.412;20.970;2023-02-26T04:45:02;0.47;;;0.22;;
36061;SDS011;22123;52.412;20.970;2023-02-26T04:47:28;0.10;;;0.10;;
36061;SDS011;22123;52.412;20.970;2023-02-26T04:49:54;1.27;;;0.68;;
36061;SDS011;22123;52.412;20.970;2023-02-26T04:52:20;0.75;;;0.30;;
36061;SDS011;22123;52.412;20.970;2023-02-26T04:54:46;0.28;;;0.13;;
36061;SDS011;22123;52.412;20.970;2023-02-26T04:57:12;0.30;;;0.30;;
36061;SDS011;22123;52.412;20.970;2023-02-26T04:59:38;1.00;;;0.40;;
36061;SDS011;22123;52.412;20.970;2023-02-26T05:02:04;0.38;;;0.30;;
36061;SDS011;22123;52.412;20.970;2023-02-26T05:04:30;0.10;;;0.10;;
36061;SDS011;22123;52.412;20.970;2023-02-26T05:06:56;3.22;;;0.60;;
36061;SDS011;22123;52.412;20.970;2023-02-26T05:09:22;0.35;;;0.35;;
36061;SDS011;22123;52.412;20.970;2023-02-26T05:11:48;0.40;;;0.32;;
36061;SDS011;22123;52.412;20.970;2023-02-26T05:14:14;0.15;;;0.10;;
36061;SDS011;22123;52.412;20.970;2023-02-26T05:16:40;0.32;;;0.20;;
36061;SDS011;22123;52.412;20.970;2023-02-26T05:19:06;4.40;;;0.45;;
36061;SDS011;22123;52.412;20.970;2023-02-26T05:21:32;0.95;;;0.65;;
36061;SDS011;22123;52.412;20.970;2023-02-26T05:23:58;0.03;;;0.03;;
36061;SDS011;22123;52.412;20.970;2023-02-26T05:26:34;0.43;;;0.10;;
36061;SDS011;22123;52.412;20.970;2023-02-26T05:29:00;0.32;;;0.20;;
36061;SDS011;22123;52.412;20.970;2023-02-26T05:31:26;0.80;;;0.52;;
36061;SDS011;22123;52.412;20.970;2023-02-26T05:33:52;0.75;;;0.20;;
36061;SDS011;22123;52.412;20.970;2023-02-26T05:36:18;0.00;;;0.00;;
36061;SDS011;22123;52.412;20.970;2023-02-26T05:38:44;0.00;;;0.00;;
36061;SDS011;22123;52.412;20.970;2023-02-26T05:41:10;0.32;;;0.15;;
36061;SDS011;22123;52.412;20.970;2023-02-26T05:43:36;0.45;;;0.45;;
36061;SDS011;22123;52.412;20.970;2023-02-26T05:46:02;0.52;;;0.35;;
36061;SDS011;22123;52.412;20.970;2023-02-26T05:48:27;0.40;;;0.20;;
36061;SDS011;22123;52.412;20.970;2023-02-26T05:50:53;0.13;;;0.08;;
36061;SDS011;22123;52.412;20.970;2023-02-26T05:53:19;0.70;;;0.32;;
36061;SDS011;22123;52.412;20.970;2023-02-26T05:55:45;0.10;;;0.10;;
36061;SDS011;22123;52.412;20.970;2023-02-26T05:58:11;1.25;;;0.40;;
36061;SDS011;22123;52.412;20.970;2023-02-26T06:00:37;0.77;;;0.30;;
36061;SDS011;22123;52.412;20.970;2023-02-26T06:03:03;0.10;;;0.10;;
36061;SDS011;22123;52.412;20.970;2023-02-26T06:05:29;0.13;;;0.13;;
36061;SDS011;22123;52.412;20.970;2023-02-26T06:07:55;0.13;;;0.13;;
36061;SDS011;22123;52.412;20.970;2023-02-26T06:10:21;0.98;;;0.70;;
36061;SDS011;22123;52.412;20.970;2023-02-26T06:12:46;1.48;;;0.88;;
36061;SDS011;22123;52.412;20.970;2023-02-26T06:15:12;0.20;;;0.10;;
36061;SDS011;22123;52.412;20.970;2023-02-26T06:17:38;1.02;;;0.88;;
36061;SDS011;22123;52.412;20.970;2023-02-26T06:20:04;0.20;;;0.20;;
36061;SDS011;22123;52.412;20.970;2023-02-26T06:22:30;0.22;;;0.22;;
36061;SDS011;22123;52.412;20.970;2023-02-26T06:24:56;0.20;;;0.17;;
36061;SDS011;22123;52.412;20.970;2023-02-26T06:27:23;0.38;;;0.20;;
36061;SDS011;22123;52.412;20.970;2023-02-26T06:29:49;1.17;;;0.70;;
36061;SDS011;22123;52.412;20.970;2023-02-26T06:32:15;0.32;;;0.17;;
36061;SDS011;22123;52.412;20.970;2023-02-26T06:34:40;1.52;;;0.40;;
36061;SDS011;22123;52.412;20.970;2023-02-26T06:37:06;0.22;;;0.22;;
36061;SDS011;22123;52.412;20.970;2023-02-26T06:39:32;5.75;;;0.43;;
36061;SDS011;22123;52.412;20.970;2023-02-26T06:41:58;0.20;;;0.10;;
36061;SDS011;22123;52.412;20.970;2023-02-26T06:44:24;0.30;;;0.20;;
36061;SDS011;22123;52.412;20.970;2023-02-26T06:46:50;0.63;;;0.35;;
36061;SDS011;22123;52.412;20.970;2023-02-26T06:49:16;0.52;;;0.20;;
36061;SDS011;22123;52.412;20.970;2023-02-26T06:51:42;0.00;;;0.00;;
36061;SDS011;22123;52.412;20.970;2023-02-26T06:54:08;0.75;;;0.15;;
36061;SDS011;22123;52.412;20.970;2023-02-26T06:56:34;0.65;;;0.32;;
36061;SDS011;22123;52.412;20.970;2023-02-26T06:59:01;0.00;;;0.00;;
36061;SDS011;22123;52.412;20.970;2023-02-26T07:01:27;0.10;;;0.10;;
36061;SDS011;22123;52.412;20.970;2023-02-26T07:03:52;1.38;;;0.95;;
36061;SDS011;22123;52.412;20.970;2023-02-26T07:06:21;0.22;;;0.22;;
36061;SDS011;22123;52.412;20.970;2023-02-26T07:08:46;0.00;;;0.00;;
36061;SDS011;22123;52.412;20.970;2023-02-26T07:11:12;0.52;;;0.17;;
36061;SDS011;22123;52.412;20.970;2023-02-26T07:13:38;0.52;;;0.30;;
36061;SDS011;22123;52.412;20.970;2023-02-26T07:16:04;0.10;;;0.10;;
36061;SDS011;22123;52.412;20.970;2023-02-26T07:18:31;1.95;;;0.28;;
36061;SDS011;22123;52.412;20.970;2023-02-26T07:20:56;0.43;;;0.20;;
36061;SDS011;22123;52.412;20.970;2023-02-26T07:23:22;2.58;;;0.45;;
36061;SDS011;22123;52.412;20.970;2023-02-26T07:25:48;1.75;;;0.65;;
36061;SDS011;22123;52.412;20.970;2023-02-26T07:28:14;0.40;;;0.10;;
36061;SDS011;22123;52.412;20.970;2023-02-26T07:30:40;2.45;;;0.47;;
36061;SDS011;22123;52.412;20.970;2023-02-26T07:33:06;0.43;;;0.43;;
36061;SDS011;22123;52.412;20.970;2023-02-26T07:35:33;0.43;;;0.40;;
36061;SDS011;22123;52.412;20.970;2023-02-26T07:37:59;0.55;;;0.55;;
36061;SDS011;22123;52.412;20.970;2023-02-26T07:40:24;0.17;;;0.17;;
36061;SDS011;22123;52.412;20.970;2023-02-26T07:42:50;0.35;;;0.25;;
36061;SDS011;22123;52.412;20.970;2023-02-26T07:45:16;0.30;;;0.30;;
36061;SDS011;22123;52.412;20.970;2023-02-26T07:47:42;0.73;;;0.50;;
36061;SDS011;22123;52.412;20.970;2023-02-26T07:50:08;0.75;;;0.65;;
36061;SDS011;22123;52.412;20.970;2023-02-26T07:52:35;0.40;;;0.40;;
36061;SDS011;22123;52.412;20.970;2023-02-26T07:55:01;0.47;;;0.38;;
36061;SDS011;22123;52.412;20.970;2023-02-26T07:57:26;0.52;;;0.52;;
36061;SDS011;22123;52.412;20.970;2023-02-26T07:59:52;2.05;;;0.25;;
36061;SDS011;22123;52.412;20.970;2023-02-26T08:02:18;0.45;;;0.35;;
36061;SDS011;22123;52.412;20.970;2023-02-26T08:04:44;0.32;;;0.25;;
36061;SDS011;22123;52.412;20.970;2023-02-26T08:07:10;0.17;;;0.10;;
36061;SDS011;22123;52.412;20.970;2023-02-26T08:09:36;0.28;;;0.20;;
36061;SDS011;22123;52.412;20.970;2023-02-26T08:12:02;0.00;;;0.00;;
36061;SDS011;22123;52.412;20.970;2023-02-26T08:14:27;0.17;;;0.17;;
36061;SDS011;22123;52.412;20.970;2023-02-26T08:16:53;0.98;;;0.55;;
36061;SDS011;22123;52.412;20.970;2023-02-26T08:19:19;0.85;;;0.30;;
36061;SDS011;22123;52.412;20.970;2023-02-26T08:21:45;0.38;;;0.10;;
36061;SDS011;22123;52.412;20.970;2023-02-26T08:24:11;0.38;;;0.10;;
36061;SDS011;22123;52.412;20.970;2023-02-26T08:26:37;0.10;;;0.10;;
36061;SDS011;22123;52.412;20.970;2023-02-26T08:29:03;0.35;;;0.25;;
36061;SDS011;22123;52.412;20.970;2023-02-26T08:31:30;0.80;;;0.40;;
36061;SDS011;22123;52.412;20.970;2023-02-26T08:33:55;0.85;;;0.52;;
36061;SDS011;22123;52.412;20.970;2023-02-26T08:36:22;0.55;;;0.20;;
36061;SDS011;22123;52.412;20.970;2023-02-26T08:38:49;0.10;;;0.10;;
36061;SDS011;22123;52.412;20.970;2023-02-26T08:41:15;0.52;;;0.30;;
36061;SDS011;22123;52.412;20.970;2023-02-26T08:43:41;0.93;;;0.40;;
36061;SDS011;22123;52.412;20.970;2023-02-26T08:46:06;2.47;;;0.22;;
36061;SDS011;22123;52.412;20.970;2023-02-26T08:48:32;0.75;;;0.17;;
36061;SDS011;22123;52.412;20.970;2023-02-26T08:50:58;3.22;;;0.70;;
36061;SDS011;22123;52.412;20.970;2023-02-26T08:53:24;3.33;;;0.70;;
36061;SDS011;22123;52.412;20.970;2023-02-26T08:55:50;1.67;;;0.30;;
36061;SDS011;22123;52.412;20.970;2023-02-26T08:58:17;0.75;;;0.38;;
36061;SDS011;22123;52.412;20.970;2023-02-26T09:00:44;0.38;;;0.22;;
36061;SDS011;22123;52.412;20.970;2023-02-26T09:03:10;3.15;;;1.70;;
36061;SDS011;22123;52.412;20.970;2023-02-26T09:05:36;3.83;;;1.10;;
36061;SDS011;22123;52.412;20.970;2023-02-26T09:08:02;1.20;;;0.68;;
36061;SDS011;22123;52.412;20.970;2023-02-26T09:10:28;1.20;;;0.45;;
36061;SDS011;22123;52.412;20.970;2023-02-26T09:12:54;0.65;;;0.60;;
36061;SDS011;22123;52.412;20.970;2023-02-26T09:15:20;0.20;;;0.20;;
36061;SDS011;22123;52.412;20.970;2023-02-26T09:17:46;1.08;;;0.75;;
36061;SDS011;22123;52.412;20.970;2023-02-26T09:20:12;1.85;;;0.55;;
36061;SDS011;22123;52.412;20.970;2023-02-26T09:22:38;1.63;;;0.40;;
36061;SDS011;22123;52.412;20.970;2023-02-26T09:25:05;1.02;;;0.63;;
36061;SDS011;22123;52.412;20.970;2023-02-26T09:27:31;2.20;;;1.00;;
36061;SDS011;22123;52.412;20.970;2023-02-26T09:29:57;0.55;;;0.10;;
36061;SDS011;22123;52.412;20.970;2023-02-26T09:32:23;1.65;;;0.70;;
36061;SDS011;22123;52.412;20.970;2023-02-26T09:34:49;2.13;;;0.45;;
36061;SDS011;22123;52.412;20.970;2023-02-26T09:37:15;2.00;;;0.52;;
36061;SDS011;22123;52.412;20.970;2023-02-26T09:39:41;0.73;;;0.25;;
36061;SDS011;22123;52.412;20.970;2023-02-26T09:42:10;0.30;;;0.30;;
36061;SDS011;22123;52.412;20.970;2023-02-26T09:45:00;0.93;;;0.35;;
36061;SDS011;22123;52.412;20.970;2023-02-26T09:47:33;1.45;;;0.40;;
36061;SDS011;22123;52.412;20.970;2023-02-26T09:50:08;4.22;;;0.30;;
36061;SDS011;22123;52.412;20.970;2023-02-26T09:55:37;0.63;;;0.52;;
36061;SDS011;22123;52.412;20.970;2023-02-26T09:58:10;1.33;;;0.70;;
36061;SDS011;22123;52.412;20.970;2023-02-26T10:00:46;0.50;;;0.30;;
36061;SDS011;22123;52.412;20.970;2023-02-26T10:11:44;1.35;;;0.38;;
36061;SDS011;22123;52.412;20.970;2023-02-26T10:19:57;0.63;;;0.38;;
36061;SDS011;22123;52.412;20.970;2023-02-26T10:22:34;1.73;;;0.73;;
36061;SDS011;22123;52.412;20.970;2023-02-26T10:25:16;0.55;;;0.38;;
36061;SDS011;22123;52.412;20.970;2023-02-26T10:30:57;1.60;;;0.40;;
36061;SDS011;22123;52.412;20.970;2023-02-26T10:33:52;2.27;;;0.63;;
36061;SDS011;22123;52.412;20.970;2023-02-26T10:36:39;0.15;;;0.00;;
36061;SDS011;22123;52.412;20.970;2023-02-26T10:39:31;0.40;;;0.35;;
36061;SDS011;22123;52.412;20.970;2023-02-26T10:42:12;1.55;;;0.68;;
36061;SDS011;22123;52.412;20.970;2023-02-26T10:50:02;1.65;;;0.75;;
36061;SDS011;22123;52.412;20.970;2023-02-26T10:52:35;0.20;;;0.20;;
36061;SDS011;22123;52.412;20.970;2023-02-26T10:57:59;0.10;;;0.10;;
36061;SDS011;22123;52.412;20.970;2023-02-26T11:00:35;0.55;;;0.03;;
36061;SDS011;22123;52.412;20.970;2023-02-26T11:03:03;0.20;;;0.13;;
36061;SDS011;22123;52.412;20.970;2023-02-26T11:05:31;0.90;;;0.20;;
36061;SDS011;22123;52.412;20.970;2023-02-26T11:08:02;0.50;;;0.25;;
36061;SDS011;22123;52.412;20.970;2023-02-26T11:10:36;0.35;;;0.25;;
36061;SDS011;22123;52.412;20.970;2023-02-26T11:13:05;0.10;;;0.10;;
36061;SDS011;22123;52.412;20.970;2023-02-26T11:15:31;1.58;;;0.45;;
36061;SDS011;22123;52.412;20.970;2023-02-26T11:17:57;0.20;;;0.20;;
36061;SDS011;22123;52.412;20.970;2023-02-26T11:22:59;2.38;;;0.75;;
36061;SDS011;22123;52.412;20.970;2023-02-26T11:25:28;0.55;;;0.20;;
36061;SDS011;22123;52.412;20.970;2023-02-26T11:28:01;0.08;;;0.08;;
36061;SDS011;22123;52.412;20.970;2023-02-26T11:30:34;0.65;;;0.30;;
36061;SDS011;22123;52.412;20.970;2023-02-26T11:36:02;0.20;;;0.20;;
36061;SDS011;22123;52.412;20.970;2023-02-26T11:38:35;1.00;;;0.45;;
36061;SDS011;22123;52.412;20.970;2023-02-26T11:41:01;0.77;;;0.40;;
36061;SDS011;22123;52.412;20.970;2023-02-26T11:43:39;0.25;;;0.25;;
36061;SDS011;22123;52.412;20.970;2023-02-26T11:46:07;2.25;;;0.22;;
36061;SDS011;22123;52.412;20.970;2023-02-26T11:48:42;0.73;;;0.45;;
36061;SDS011;22123;52.412;20.970;2023-02-26T11:51:12;0.30;;;0.30;;
36061;SDS011;22123;52.412;20.970;2023-02-26T11:56:14;0.30;;;0.30;;
36061;SDS011;22123;52.412;20.970;2023-02-26T11:58:49;0.40;;;0.15;;
36061;SDS011;22123;52.412;20.970;2023-02-26T12:01:16;0.00;;;0.00;;
36061;SDS011;22123;52.412;20.970;2023-02-26T12:03:46;1.38;;;0.38;;
36061;SDS011;22123;52.412;20.970;2023-02-26T12:06:20;0.20;;;0.20;;
36061;SDS011;22123;52.412;20.970;2023-02-26T12:08:47;0.65;;;0.52;;
36061;SDS011;22123;52.412;20.970;2023-02-26T12:17:12;0.35;;;0.35;;
36061;SDS011;22123;52.412;20.970;2023-02-26T12:25:25;0.10;;;0.10;;
36061;SDS011;22123;52.412;20.970;2023-02-26T12:30:30;0.05;;;0.00;;
36061;SDS011;22123;52.412;20.970;2023-02-26T12:39:18;1.65;;;0.30;;
36061;SDS011;22123;52.412;20.970;2023-02-26T12:47:30;3.00;;;0.17;;
36061;SDS011;22123;52.412;20.970;2023-02-26T12:58:38;0.17;;;0.10;;
36061;SDS011;22123;52.412;20.970;2023-02-26T13:12:07;0.10;;;0.10;;
36061;SDS011;22123;52.412;20.970;2023-02-26T13:17:35;0.10;;;0.10;;
36061;SDS011;22123;52.412;20.970;2023-02-26T13:20:10;0.43;;;0.43;;
36061;SDS011;22123;52.412;20.970;2023-02-26T13:22:41;0.13;;;0.13;;
36061;SDS011;22123;52.412;20.970;2023-02-26T13:27:46;2.67;;;0.47;;
36061;SDS011;22123;52.412;20.970;2023-02-26T13:30:21;0.10;;;0.10;;
36061;SDS011;22123;52.412;20.970;2023-02-26T13:32:49;0.03;;;0.03;;
36061;SDS011;22123;52.412;20.970;2023-02-26T13:35:26;0.93;;;0.25;;
36061;SDS011;22123;52.412;20.970;2023-02-26T13:37:53;0.00;;;0.00;;
36061;SDS011;22123;52.412;20.970;2023-02-26T13:40:37;0.55;;;0.30;;
36061;SDS011;22123;52.412;20.970;2023-02-26T13:49:01;0.60;;;0.28;;
36061;SDS011;22123;52.412;20.970;2023-02-26T13:51:39;1.60;;;0.67;;
36061;SDS011;22123;52.412;20.970;2023-02-26T13:54:27;3.20;;;0.73;;
36061;SDS011;22123;52.412;20.970;2023-02-26T13:57:05;0.60;;;0.30;;
36061;SDS011;22123;52.412;20.970;2023-02-26T14:03:12;1.00;;;0.30;;
36061;SDS011;22123;52.412;20.970;2023-02-26T14:08:17;0.20;;;0.10;;
36061;SDS011;22123;52.412;20.970;2023-02-26T14:10:55;1.63;;;0.65;;
36061;SDS011;22123;52.412;20.970;2023-02-26T14:13:29;2.05;;;0.70;;
36061;SDS011;22123;52.412;20.970;2023-02-26T14:16:09;1.10;;;0.38;;
36061;SDS011;22123;52.412;20.970;2023-02-26T14:23:49;4.65;;;0.75;;
36061;SDS011;22123;52.412;20.970;2023-02-26T14:26:21;1.10;;;0.20;;
36061;SDS011;22123;52.412;20.970;2023-02-26T14:28:55;0.45;;;0.20;;
36061;SDS011;22123;52.412;20.970;2023-02-26T14:31:22;4.57;;;1.23;;
36061;SDS011;22123;52.412;20.970;2023-02-26T14:33:59;0.73;;;0.20;;
36061;SDS011;22123;52.412;20.970;2023-02-26T14:36:47;0.77;;;0.38;;
36061;SDS011;22123;52.412;20.970;2023-02-26T14:39:27;0.85;;;0.57;;
36061;SDS011;22123;52.412;20.970;2023-02-26T14:41:57;0.30;;;0.20;;
36061;SDS011;22123;52.412;20.970;2023-02-26T14:46:55;0.40;;;0.35;;
36061;SDS011;22123;52.412;20.970;2023-02-26T14:51:59;1.20;;;0.47;;
36061;SDS011;22123;52.412;20.970;2023-02-26T14:54:51;0.30;;;0.30;;
36061;SDS011;22123;52.412;20.970;2023-02-26T15:00:21;0.88;;;0.43;;
36061;SDS011;22123;52.412;20.970;2023-02-26T15:05:57;2.78;;;0.65;;
36061;SDS011;22123;52.412;20.970;2023-02-26T15:08:52;1.58;;;0.82;;
36061;SDS011;22123;52.412;20.970;2023-02-26T15:11:38;0.45;;;0.20;;
36061;SDS011;22123;52.412;20.970;2023-02-26T15:17:11;3.22;;;0.98;;
36061;SDS011;22123;52.412;20.970;2023-02-26T15:22:24;0.10;;;0.10;;
36061;SDS011;22123;52.412;20.970;2023-02-26T15:25:04;6.20;;;3.25;;
36061;SDS011;22123;52.412;20.970;2023-02-26T15:27:39;0.82;;;0.63;;
36061;SDS011;22123;52.412;20.970;2023-02-26T15:30:06;6.15;;;2.25;;
36061;SDS011;22123;52.412;20.970;2023-02-26T15:32:38;3.58;;;0.75;;
36061;SDS011;22123;52.412;20.970;2023-02-26T15:35:17;1.75;;;0.85;;
36061;SDS011;22123;52.412;20.970;2023-02-26T15:38:03;1.05;;;0.40;;
36061;SDS011;22123;52.412;20.970;2023-02-26T15:40:30;6.82;;;2.40;;
36061;SDS011;22123;52.412;20.970;2023-02-26T15:42:59;2.42;;;1.20;;
36061;SDS011;22123;52.412;20.970;2023-02-26T15:45:36;7.63;;;2.33;;
36061;SDS011;22123;52.412;20.970;2023-02-26T15:48:13;0.73;;;0.73;;
36061;SDS011;22123;52.412;20.970;2023-02-26T15:50:44;1.70;;;1.25;;
36061;SDS011;22123;52.412;20.970;2023-02-26T15:53:12;4.13;;;1.60;;
36061;SDS011;22123;52.412;20.970;2023-02-26T15:55:46;2.38;;;1.08;;
36061;SDS011;22123;52.412;20.970;2023-02-26T15:58:24;2.28;;;1.02;;
36061;SDS011;22123;52.412;20.970;2023-02-26T16:00:59;1.73;;;1.25;;
36061;SDS011;22123;52.412;20.970;2023-02-26T16:03:30;1.33;;;1.17;;
36061;SDS011;22123;52.412;20.970;2023-02-26T16:05:58;3.75;;;1.45;;
36061;SDS011;22123;52.412;20.970;2023-02-26T16:08:24;0.47;;;0.32;;
36061;SDS011;22123;52.412;20.970;2023-02-26T16:10:51;6.03;;;1.25;;
36061;SDS011;22123;52.412;20.970;2023-02-26T16:13:28;1.25;;;0.93;;
36061;SDS011;22123;52.412;20.970;2023-02-26T16:16:01;3.03;;;1.02;;
36061;SDS011;22123;52.412;20.970;2023-02-26T16:18:33;2.72;;;1.15;;
36061;SDS011;22123;52.412;20.970;2023-02-26T16:21:01;9.73;;;2.95;;
36061;SDS011;22123;52.412;20.970;2023-02-26T16:23:43;5.55;;;2.28;;
36061;SDS011;22123;52.412;20.970;2023-02-26T16:26:55;1.67;;;0.85;;
36061;SDS011;22123;52.412;20.970;2023-02-26T16:29:10;3.55;;;1.95;;
36061;SDS011;22123;52.412;20.970;2023-02-26T16:31:40;1.80;;;1.10;;
36061;SDS011;22123;52.412;20.970;2023-02-26T16:34:21;7.85;;;2.60;;
36061;SDS011;22123;52.412;20.970;2023-02-26T16:36:52;2.33;;;1.45;;
36061;SDS011;22123;52.412;20.970;2023-02-26T16:39:26;2.78;;;1.48;;
36061;SDS011;22123;52.412;20.970;2023-02-26T16:42:07;3.75;;;1.55;;
36061;SDS011;22123;52.412;20.970;2023-02-26T16:47:27;3.80;;;1.40;;
36061;SDS011;22123;52.412;20.970;2023-02-26T16:49:55;4.07;;;1.75;;
36061;SDS011;22123;52.412;20.970;2023-02-26T16:52:22;6.68;;;1.90;;
36061;SDS011;22123;52.412;20.970;2023-02-26T16:54:55;6.00;;;1.30;;
36061;SDS011;22123;52.412;20.970;2023-02-26T16:57:34;2.25;;;0.82;;
36061;SDS011;22123;52.412;20.970;2023-02-26T17:00:10;1.67;;;1.10;;
36061;SDS011;22123;52.412;20.970;2023-02-26T17:02:44;6.88;;;2.00;;
36061;SDS011;22123;52.412;20.970;2023-02-26T17:07:52;8.88;;;3.88;;
36061;SDS011;22123;52.412;20.970;2023-02-26T17:10:49;14.40;;;2.60;;
36061;SDS011;22123;52.412;20.970;2023-02-26T17:13:22;9.55;;;3.78;;
36061;SDS011;22123;52.412;20.970;2023-02-26T17:15:50;8.35;;;4.18;;
36061;SDS011;22123;52.412;20.970;2023-02-26T17:18:16;9.98;;;4.50;;
36061;SDS011;22123;52.412;20.970;2023-02-26T17:20:42;11.68;;;4.95;;
36061;SDS011;22123;52.412;20.970;2023-02-26T17:23:09;8.18;;;4.13;;
36061;SDS011;22123;52.412;20.970;2023-02-26T17:25:42;14.95;;;5.70;;
36061;SDS011;22123;52.412;20.970;2023-02-26T17:28:11;9.75;;;3.17;;
36061;SDS011;22123;52.412;20.970;2023-02-26T17:30:41;7.38;;;3.63;;
36061;SDS011;22123;52.412;20.970;2023-02-26T17:33:08;8.80;;;3.13;;
36061;SDS011;22123;52.412;20.970;2023-02-26T17:35:38;8.52;;;4.63;;
36061;SDS011;22123;52.412;20.970;2023-02-26T17:38:04;5.65;;;3.22;;
36061;SDS011;22123;52.412;20.970;2023-02-26T17:40:32;15.13;;;5.40;;
36061;SDS011;22123;52.412;20.970;2023-02-26T17:43:00;15.75;;;5.55;;
36061;SDS011;22123;52.412;20.970;2023-02-26T17:45:25;10.02;;;4.10;;
36061;SDS011;22123;52.412;20.970;2023-02-26T17:47:51;5.60;;;2.75;;